Time,TemperatureF,DewpointF,PressureIn,WindDirection,WindDirectionDegrees,WindSpeedMPH,WindSpeedGustMPH,Humidity,HourlyPrecipIn,Conditions,Clouds,dailyrainin,SolarRadiationWatts/m^2,SoftwareType,DateUTC
2013-01-19 00:01:00,34.4,23.8,29.99,West,270,4.7,6.9,65,0.00,CLR,,0.00,0.0,WeatherDisplay:10.37,2013-01-19 05:01:00,
2013-01-19 00:02:00,34.3,24.1,29.99,SW,214,2.0,6.9,66,0.00,CLR,,0.00,0.0,WeatherDisplay:10.37,2013-01-19 05:02:00,
2013-01-19 00:03:00,34.3,24.1,29.99,WSW,257,3.3,6.0,66,0.00,CLR,,0.00,0.0,WeatherDisplay:10.37,2013-01-19 05:03:00,
2013-01-19 00:08:00,34.3,24.1,29.98,SSW,209,4.2,10.4,66,0.00,CLR,,0.00,0.0,WeatherDisplay:10.37,2013-01-19 05:08:00,
2013-01-19 00:13:00,34.3,24.1,29.98,WSW,246,4.7,9.0,66,0.00,CLR,,0.00,0.0,WeatherDisplay:10.37,2013-01-19 05:13:00,
2013-01-19 00:18:00,34.3,24.1,29.98,SSW,210,5.3,9.2,66,0.00,CLR,,0.00,0.0,WeatherDisplay:10.37,2013-01-19 05:18:00,
2013-01-19 00:23:00,34.3,24.1,29.98,WSW,253,4.4,8.1,66,0.00,CLR,,0.00,0.0,WeatherDisplay:10.37,2013-01-19 05:23:00,
2013-01-19 00:28:00,34.3,24.1,29.98,SW,221,4.9,8.1,66,0.00,CLR,,0.00,0.0,WeatherDisplay:10.37,2013-01-19 05:28:00,
2013-01-19 00:33:00,34.3,24.1,29.97,SW,223,4.5,8.1,66,0.00,CLR,,0.00,0.0,WeatherDisplay:10.37,2013-01-19 05:33:00,
2013-01-19 00:38:00,34.3,24.5,29.97,SW,217,4.2,9.0,67,0.00,CLR,,0.00,0.0,WeatherDisplay:10.37,2013-01-19 05:38:00,
2013-01-19 00:43:00,34.3,24.5,29.97,South,180,5.3,8.1,67,0.00,CLR,,0.00,0.0,WeatherDisplay:10.37,2013-01-19 05:43:00,
2013-01-19 00:48:00,34.3,24.5,29.97,SW,229,4.8,6.0,67,0.00,CLR,,0.00,0.0,WeatherDisplay:10.37,2013-01-19 05:48:00,
2013-01-19 00:53:00,34.3,24.5,29.97,SSE,163,2.2,8.1,67,0.00,CLR,,0.00,0.0,WeatherDisplay:10.37,2013-01-19 05:53:00,
2013-01-19 00:58:00,34.3,24.5,29.97,SSW,201,2.0,8.1,67,0.00,CLR,,0.00,0.0,WeatherDisplay:10.37,2013-01-19 05:58:00,
2013-01-19 01:03:00,34.3,24.5,29.97,South,187,6.0,10.4,67,0.00,CLR,,0.00,0.0,WeatherDisplay:10.37,2013-01-19 06:03:00,
2013-01-19 01:08:00,34.3,24.5,29.97,South,183,6.2,6.9,67,0.00,CLR,,0.00,0.0,WeatherDisplay:10.37,2013-01-19 06:08:00,
2013-01-19 01:13:00,34.4,24.6,29.96,WSW,248,6.3,11.5,67,0.00,CLR,,0.00,0.0,WeatherDisplay:10.37,2013-01-19 06:13:00,
2013-01-19 01:18:00,34.5,24.7,29.96,SSW,209,2.3,6.0,67,0.00,CLR,,0.00,0.0,WeatherDisplay:10.37,2013-01-19 06:18:00,
2013-01-19 01:23:00,34.4,24.6,29.96,SW,219,5.6,12.7,67,0.00,CLR,,0.00,0.0,WeatherDisplay:10.37,2013-01-19 06:23:00,
2013-01-19 01:28:00,34.6,24.8,29.96,West,260,3.4,8.1,67,0.00,CLR,,0.00,0.0,WeatherDisplay:10.37,2013-01-19 06:28:00,
2013-01-19 01:33:00,34.7,24.9,29.96,South,186,5.9,11.5,67,0.00,CLR,,0.00,0.0,WeatherDisplay:10.37,2013-01-19 06:33:00,
2013-01-19 01:38:00,34.7,24.9,29.96,SW,232,5.3,8.1,67,0.00,CLR,,0.00,0.0,WeatherDisplay:10.37,2013-01-19 06:38:00,
2013-01-19 01:43:00,34.7,24.9,29.96,South,184,2.9,6.9,67,0.00,CLR,,0.00,0.0,WeatherDisplay:10.37,2013-01-19 06:43:00,
2013-01-19 01:48:00,34.7,24.9,29.95,WSW,248,3.2,9.0,67,0.00,CLR,,0.00,0.0,WeatherDisplay:10.37,2013-01-19 06:48:00,
2013-01-19 01:53:00,34.7,24.9,29.95,South,187,2.7,8.0,67,0.00,CLR,,0.00,0.0,WeatherDisplay:10.37,2013-01-19 06:53:00,
2013-01-19 01:58:00,34.8,25.0,29.96,SW,230,5.7,5.7,67,0.00,CLR,,0.00,0.0,WeatherDisplay:10.37,2013-01-19 06:58:00,
2013-01-19 02:03:00,34.9,25.0,29.96,SSW,200,4.5,6.9,67,0.00,CLR,,0.00,0.0,WeatherDisplay:10.37,2013-01-19 07:03:00,
2013-01-19 02:08:00,34.9,25.0,29.96,South,186,3.9,11.5,67,0.00,CLR,,0.00,0.0,WeatherDisplay:10.37,2013-01-19 07:08:00,
2013-01-19 02:13:00,35.0,25.1,29.96,South,182,5.8,10.0,67,0.00,CLR,,0.00,0.0,WeatherDisplay:10.37,2013-01-19 07:13:00,
2013-01-19 02:18:00,35.0,25.1,29.96,South,191,4.5,5.8,67,0.00,CLR,,0.00,0.0,WeatherDisplay:10.37,2013-01-19 07:18:00,
2013-01-19 02:23:00,34.9,25.0,29.96,South,186,4.7,5.8,67,0.00,CLR,,0.00,0.0,WeatherDisplay:10.37,2013-01-19 07:23:00,
2013-01-19 02:28:00,35.0,25.1,29.96,SSE,159,3.8,6.9,67,0.00,CLR,,0.00,0.0,WeatherDisplay:10.37,2013-01-19 07:28:00,
2013-01-19 02:33:00,35.0,25.1,29.96,SW,215,5.1,8.1,67,0.00,CLR,,0.00,0.0,WeatherDisplay:10.37,2013-01-19 07:33:00,
2013-01-19 02:38:00,35.1,25.2,29.96,SSE,165,3.5,8.1,67,0.00,CLR,,0.00,0.0,WeatherDisplay:10.37,2013-01-19 07:38:00,
2013-01-19 02:43:00,35.2,25.3,29.95,SSW,205,5.9,6.9,67,0.00,CLR,,0.00,0.0,WeatherDisplay:10.37,2013-01-19 07:43:00,
2013-01-19 02:48:00,35.2,25.3,29.95,SSW,202,3.4,5.8,67,0.00,CLR,,0.00,0.0,WeatherDisplay:10.37,2013-01-19 07:48:00,
2013-01-19 02:53:00,35.2,25.3,29.95,SSW,200,2.9,8.1,67,0.00,CLR,,0.00,0.0,WeatherDisplay:10.37,2013-01-19 07:53:00,
2013-01-19 02:59:00,35.2,25.3,29.95,SW,216,4.6,6.9,67,0.00,CLR,,0.00,0.0,WeatherDisplay:10.37,2013-01-19 07:59:00,
2013-01-19 03:04:00,35.2,25.3,29.95,SSW,205,3.2,4.0,67,0.00,CLR,,0.00,0.0,WeatherDisplay:10.37,2013-01-19 08:04:00,
2013-01-19 03:09:00,35.2,25.3,29.95,SSW,192,3.4,4.6,67,0.00,CLR,,0.00,0.0,WeatherDisplay:10.37,2013-01-19 08:09:00,
2013-01-19 03:14:00,35.3,25.4,29.95,SSW,192,5.1,12.7,67,0.00,CLR,,0.00,0.0,WeatherDisplay:10.37,2013-01-19 08:14:00,
2013-01-19 03:19:00,35.4,25.2,29.95,SW,215,4.6,6.9,66,0.00,CLR,,0.00,0.0,WeatherDisplay:10.37,2013-01-19 08:19:00,
2013-01-19 03:24:00,35.6,25.4,29.95,WSW,255,2.4,3.5,66,0.00,CLR,,0.00,0.0,WeatherDisplay:10.37,2013-01-19 08:24:00,
2013-01-19 03:29:00,35.6,25.4,29.95,SSE,153,2.7,6.0,66,0.00,CLR,,0.00,0.0,WeatherDisplay:10.37,2013-01-19 08:29:00,
2013-01-19 03:34:00,35.6,25.4,29.95,SW,230,1.2,3.5,66,0.00,CLR,,0.00,0.0,WeatherDisplay:10.37,2013-01-19 08:34:00,
2013-01-19 03:39:00,35.7,25.4,29.95,WSW,247,5.0,9.2,66,0.00,CLR,,0.00,0.0,WeatherDisplay:10.37,2013-01-19 08:39:00,
2013-01-19 03:44:00,35.9,25.6,29.95,ENE,60,1.9,3.5,66,0.00,CLR,,0.00,0.0,WeatherDisplay:10.37,2013-01-19 08:44:00,
2013-01-19 03:49:00,35.9,25.6,29.95,South,175,4.7,10.0,66,0.00,CLR,,0.00,0.0,WeatherDisplay:10.37,2013-01-19 08:49:00,
2013-01-19 03:54:00,35.9,25.6,29.95,SW,231,6.2,12.0,66,0.00,CLR,,0.00,0.0,WeatherDisplay:10.37,2013-01-19 08:54:00,
2013-01-19 03:59:00,35.9,25.6,29.95,SSW,204,5.2,6.9,66,0.00,CLR,,0.00,0.0,WeatherDisplay:10.37,2013-01-19 08:59:00,
2013-01-19 04:04:00,35.9,25.6,29.95,SSW,198,4.9,9.2,66,0.00,CLR,,0.00,0.0,WeatherDisplay:10.37,2013-01-19 09:04:00,
2013-01-19 04:09:00,35.9,25.6,29.95,SW,223,5.0,8.1,66,0.00,CLR,,0.00,0.0,WeatherDisplay:10.37,2013-01-19 09:09:00,
2013-01-19 04:14:00,35.9,25.6,29.95,SSW,200,5.6,10.4,66,0.00,CLR,,0.00,0.0,WeatherDisplay:10.37,2013-01-19 09:14:00,
2013-01-19 04:19:00,35.8,25.5,29.94,SW,225,4.6,8.1,66,0.00,CLR,,0.00,0.0,WeatherDisplay:10.37,2013-01-19 09:19:00,
2013-01-19 04:24:00,35.7,25.4,29.94,South,176,2.7,5.8,66,0.00,CLR,,0.00,0.0,WeatherDisplay:10.37,2013-01-19 09:24:00,
2013-01-19 04:29:00,35.6,25.7,29.94,South,190,2.3,4.6,67,0.00,CLR,,0.00,0.0,WeatherDisplay:10.37,2013-01-19 09:29:00,
2013-01-19 04:34:00,35.7,25.8,29.94,South,180,2.3,4.6,67,0.00,CLR,,0.00,0.0,WeatherDisplay:10.37,2013-01-19 09:34:00,
2013-01-19 04:39:00,35.7,25.8,29.94,SW,230,4.4,11.5,67,0.00,CLR,,0.00,0.0,WeatherDisplay:10.37,2013-01-19 09:39:00,
2013-01-19 04:44:00,35.8,25.9,29.94,SW,233,3.2,6.9,67,0.00,CLR,,0.00,0.0,WeatherDisplay:10.37,2013-01-19 09:44:00,
2013-01-19 04:49:00,35.7,25.8,29.93,SSW,200,2.0,6.0,67,0.00,CLR,,0.00,0.0,WeatherDisplay:10.37,2013-01-19 09:49:00,
2013-01-19 04:54:00,35.6,25.7,29.93,SW,228,1.6,3.5,67,0.00,CLR,,0.00,0.0,WeatherDisplay:10.37,2013-01-19 09:54:00,
2013-01-19 04:59:00,35.5,26.0,29.94,SSW,197,5.3,10.4,68,0.00,CLR,,0.00,0.0,WeatherDisplay:10.37,2013-01-19 09:59:00,
2013-01-19 05:04:00,35.5,25.6,29.93,SSW,192,2.9,6.9,67,0.00,CLR,,0.00,0.0,WeatherDisplay:10.37,2013-01-19 10:04:00,
2013-01-19 05:09:00,35.6,25.7,29.94,SSW,192,4.7,6.9,67,0.00,CLR,,0.00,0.0,WeatherDisplay:10.37,2013-01-19 10:09:00,
2013-01-19 05:14:00,35.6,25.7,29.93,SSE,165,2.5,3.5,67,0.00,CLR,,0.00,0.0,WeatherDisplay:10.37,2013-01-19 10:14:00,
2013-01-19 05:19:00,35.5,26.0,29.93,South,171,2.8,4.6,68,0.00,CLR,,0.00,0.0,WeatherDisplay:10.37,2013-01-19 10:19:00,
2013-01-19 05:24:00,35.5,26.0,29.93,SW,227,4.4,8.1,68,0.00,CLR,,0.00,0.0,WeatherDisplay:10.37,2013-01-19 10:24:00,
2013-01-19 05:29:00,35.5,26.0,29.93,SSW,199,2.8,9.2,68,0.00,CLR,,0.00,0.0,WeatherDisplay:10.37,2013-01-19 10:29:00,
2013-01-19 05:34:00,35.5,26.0,29.93,SW,234,4.1,6.9,68,0.00,CLR,,0.00,0.0,WeatherDisplay:10.37,2013-01-19 10:34:00,
2013-01-19 05:39:00,35.5,26.0,29.94,SE,146,4.1,5.8,68,0.00,CLR,,0.00,0.0,WeatherDisplay:10.37,2013-01-19 10:39:00,
2013-01-19 05:44:00,35.5,26.0,29.93,SSW,203,4.3,6.9,68,0.00,CLR,,0.00,0.0,WeatherDisplay:10.37,2013-01-19 10:44:00,
2013-01-19 05:49:00,35.5,26.0,29.94,SSW,204,3.5,9.2,68,0.00,CLR,,0.00,0.0,WeatherDisplay:10.37,2013-01-19 10:49:00,
2013-01-19 05:54:00,35.5,26.0,29.93,SW,217,3.3,5.8,68,0.00,CLR,,0.00,0.0,WeatherDisplay:10.37,2013-01-19 10:54:00,
2013-01-19 05:59:00,35.5,26.0,29.93,West,263,4.7,9.0,68,0.00,CLR,,0.00,0.0,WeatherDisplay:10.37,2013-01-19 10:59:00,
2013-01-19 06:04:00,35.6,26.1,29.94,WSW,253,5.4,10.4,68,0.00,CLR,,0.00,0.0,WeatherDisplay:10.37,2013-01-19 11:04:00,
2013-01-19 06:09:00,35.5,26.3,29.93,South,187,4.8,9.2,69,0.00,CLR,,0.00,0.0,WeatherDisplay:10.37,2013-01-19 11:09:00,
2013-01-19 07:47:00,35.2,26.7,29.93,West,261,3.9,12.0,71,0.00,CLR,,0.00,0.0,WeatherDisplay:10.37,2013-01-19 12:47:00,
2013-01-19 07:48:00,35.2,26.7,29.93,WSW,245,2.5,10.4,71,0.00,CLR,,0.00,0.0,WeatherDisplay:10.37,2013-01-19 12:48:00,
2013-01-19 07:53:00,35.1,26.6,29.94,South,175,2.7,3.5,71,0.00,CLR,,0.00,5.0,WeatherDisplay:10.37,2013-01-19 12:53:00,
2013-01-19 07:58:00,35.2,26.7,29.93,SSW,201,3.2,8.1,71,0.00,CLR,,0.00,7.0,WeatherDisplay:10.37,2013-01-19 12:58:00,
2013-01-19 08:03:00,35.2,26.7,29.93,WSW,250,2.2,5.8,71,0.00,CLR,,0.00,11.0,WeatherDisplay:10.37,2013-01-19 13:03:00,
2013-01-19 08:08:00,35.3,26.8,29.93,South,170,5.9,8.1,71,0.00,CLR,,0.00,14.0,WeatherDisplay:10.37,2013-01-19 13:08:00,
2013-01-19 08:13:00,35.5,27.0,29.93,SSW,207,3.6,5.0,71,0.00,CLR,,0.00,21.0,WeatherDisplay:10.37,2013-01-19 13:13:00,
2013-01-19 08:18:00,35.6,27.1,29.93,South,184,2.8,3.5,71,0.00,CLR,,0.00,26.0,WeatherDisplay:10.37,2013-01-19 13:18:00,
2013-01-19 08:23:00,35.7,27.2,29.94,WSW,246,2.8,4.6,71,0.00,CLR,,0.00,32.0,WeatherDisplay:10.37,2013-01-19 13:23:00,
2013-01-19 08:28:00,35.9,27.1,29.94,WSW,255,3.3,6.9,70,0.00,CLR,,0.00,40.0,WeatherDisplay:10.37,2013-01-19 13:28:00,
2013-01-19 08:33:00,36.0,27.2,29.94,SSE,155,2.8,4.0,70,0.00,CLR,,0.00,42.0,WeatherDisplay:10.37,2013-01-19 13:33:00,
2013-01-19 08:38:00,36.2,27.4,29.94,SW,232,4.4,8.1,70,0.00,CLR,,0.00,53.0,WeatherDisplay:10.37,2013-01-19 13:38:00,
2013-01-19 08:43:00,36.4,27.5,29.94,SSW,197,3.1,8.1,70,0.00,CLR,,0.00,67.0,WeatherDisplay:10.37,2013-01-19 13:43:00,
2013-01-19 08:48:00,36.6,27.4,29.94,West,266,4.7,8.1,69,0.00,CLR,,0.00,86.0,WeatherDisplay:10.37,2013-01-19 13:48:00,
2013-01-19 08:53:00,36.8,27.6,29.94,SSE,168,2.4,9.0,69,0.00,CLR,,0.00,79.0,WeatherDisplay:10.37,2013-01-19 13:53:00,
2013-01-19 08:58:00,37.0,27.8,29.94,WSW,248,5.2,11.5,69,0.00,CLR,,0.00,70.0,WeatherDisplay:10.37,2013-01-19 13:58:00,
2013-01-19 09:03:00,37.1,27.9,29.94,South,175,2.4,5.8,69,0.00,CLR,,0.00,77.0,WeatherDisplay:10.37,2013-01-19 14:03:00,
2013-01-19 09:08:00,37.1,27.5,29.94,SSE,150,3.5,9.2,68,0.00,CLR,,0.00,69.0,WeatherDisplay:10.37,2013-01-19 14:08:00,
2013-01-19 09:14:00,37.2,27.6,29.94,SSW,200,2.8,8.1,68,0.00,CLR,,0.00,60.0,WeatherDisplay:10.37,2013-01-19 14:14:00,
2013-01-19 09:19:00,37.1,27.5,29.95,SW,215,6.1,9.2,68,0.00,CLR,,0.00,40.0,WeatherDisplay:10.37,2013-01-19 14:19:00,
2013-01-19 09:24:00,37.1,27.5,29.94,WSW,240,3.7,9.2,68,0.00,CLR,,0.00,37.0,WeatherDisplay:10.37,2013-01-19 14:24:00,
2013-01-19 09:29:00,37.0,27.8,29.94,SW,215,4.0,4.6,69,0.00,CLR,,0.00,35.0,WeatherDisplay:10.37,2013-01-19 14:29:00,
2013-01-19 09:34:00,36.9,27.7,29.94,NW,308,4.4,8.1,69,0.00,CLR,,0.00,39.0,WeatherDisplay:10.37,2013-01-19 14:34:00,
2013-01-19 09:39:00,36.9,27.7,29.94,SSE,161,3.3,8.1,69,0.00,CLR,,0.00,46.0,WeatherDisplay:10.37,2013-01-19 14:39:00,
2013-01-19 09:44:00,37.1,27.9,29.94,SSE,153,2.8,12.7,69,0.00,CLR,,0.00,163.0,WeatherDisplay:10.37,2013-01-19 14:44:00,
2013-01-19 09:49:00,37.7,28.4,29.94,West,277,5.1,10.4,69,0.00,CLR,,0.00,214.0,WeatherDisplay:10.37,2013-01-19 14:49:00,
2013-01-19 09:54:00,38.4,28.4,29.94,SSE,153,5.1,9.2,67,0.00,CLR,,0.00,246.0,WeatherDisplay:10.37,2013-01-19 14:54:00,
2013-01-19 09:59:00,38.9,28.9,29.94,SW,227,5.1,11.5,67,0.00,CLR,,0.00,72.0,WeatherDisplay:10.37,2013-01-19 14:59:00,
2013-01-19 10:04:00,39.3,28.5,29.94,SW,219,7.2,10.4,65,0.00,CLR,,0.00,192.0,WeatherDisplay:10.37,2013-01-19 15:04:00,
2013-01-19 10:09:00,39.7,28.9,29.94,South,175,3.9,6.9,65,0.00,CLR,,0.00,130.0,WeatherDisplay:10.37,2013-01-19 15:09:00,
2013-01-19 10:14:00,39.8,28.6,29.94,East,80,4.4,8.1,64,0.00,CLR,,0.00,142.0,WeatherDisplay:10.37,2013-01-19 15:14:00,
2013-01-19 10:19:00,39.8,29.0,29.94,West,272,3.8,7.0,65,0.00,CLR,,0.00,113.0,WeatherDisplay:10.37,2013-01-19 15:19:00,
2013-01-19 10:24:00,39.6,28.8,29.94,WSW,250,2.9,6.9,65,0.00,CLR,,0.00,97.0,WeatherDisplay:10.37,2013-01-19 15:24:00,
2013-01-19 10:29:00,39.5,28.7,29.94,SSW,201,2.6,4.6,65,0.00,CLR,,0.00,137.0,WeatherDisplay:10.37,2013-01-19 15:29:00,
2013-01-19 10:34:00,39.7,28.9,29.94,SSE,148,3.3,11.0,65,0.00,CLR,,0.00,141.0,WeatherDisplay:10.37,2013-01-19 15:34:00,
2013-01-19 10:39:00,39.9,29.1,29.94,WNW,288,6.6,9.2,65,0.00,CLR,,0.00,188.0,WeatherDisplay:10.37,2013-01-19 15:39:00,
2013-01-19 10:44:00,40.3,29.5,29.93,SSW,200,7.2,12.7,65,0.00,CLR,,0.00,185.0,WeatherDisplay:10.37,2013-01-19 15:44:00,
2013-01-19 10:49:00,40.6,29.4,29.93,SW,231,2.4,4.6,64,0.00,CLR,,0.00,209.0,WeatherDisplay:10.37,2013-01-19 15:49:00,
2013-01-19 10:54:00,41.0,29.7,29.93,SSE,167,6.0,18.4,64,0.00,CLR,,0.00,186.0,WeatherDisplay:10.37,2013-01-19 15:54:00,
2013-01-19 10:59:00,41.4,29.7,29.93,SW,215,4.2,10.4,63,0.00,CLR,,0.00,329.0,WeatherDisplay:10.37,2013-01-19 15:59:00,
2013-01-19 11:04:00,41.8,29.7,29.92,SW,224,7.1,16.1,62,0.00,CLR,,0.00,316.0,WeatherDisplay:10.37,2013-01-19 16:04:00,
2013-01-19 11:09:00,41.9,30.2,29.92,South,171,4.0,9.2,63,0.00,CLR,,0.00,302.0,WeatherDisplay:10.37,2013-01-19 16:09:00,
2013-01-19 11:14:00,42.1,30.0,29.92,SW,226,6.9,11.5,62,0.00,CLR,,0.00,313.0,WeatherDisplay:10.37,2013-01-19 16:14:00,
2013-01-19 11:19:00,42.3,30.2,29.91,SW,234,3.0,6.9,62,0.00,CLR,,0.00,378.0,WeatherDisplay:10.37,2013-01-19 16:19:00,
2013-01-19 11:24:00,42.6,30.1,29.91,SW,232,5.3,16.1,61,0.00,CLR,,0.00,232.0,WeatherDisplay:10.37,2013-01-19 16:24:00,
2013-01-19 11:29:00,42.4,29.9,29.91,SSW,201,5.9,11.5,61,0.00,CLR,,0.00,200.0,WeatherDisplay:10.37,2013-01-19 16:29:00,
2013-01-19 11:34:00,42.5,30.4,29.91,SW,230,6.3,11.5,62,0.00,CLR,,0.00,236.0,WeatherDisplay:10.37,2013-01-19 16:34:00,
2013-01-19 11:39:00,42.9,30.8,29.90,SW,222,4.4,8.1,62,0.00,CLR,,0.00,295.0,WeatherDisplay:10.37,2013-01-19 16:39:00,
2013-01-19 11:44:00,43.5,30.9,29.90,South,179,5.3,8.1,61,0.00,CLR,,0.00,271.0,WeatherDisplay:10.37,2013-01-19 16:44:00,
2013-01-19 11:49:00,43.7,30.7,29.90,NW,309,4.3,8.1,60,0.00,CLR,,0.00,218.0,WeatherDisplay:10.37,2013-01-19 16:49:00,
2013-01-19 11:54:00,43.3,30.3,29.89,WSW,242,6.0,11.5,60,0.00,CLR,,0.00,232.0,WeatherDisplay:10.37,2013-01-19 16:54:00,
2013-01-19 11:59:00,43.2,30.6,29.89,WSW,247,4.0,8.0,61,0.00,CLR,,0.00,230.0,WeatherDisplay:10.37,2013-01-19 16:59:00,
2013-01-19 12:04:00,43.1,30.6,29.89,SE,134,3.3,9.2,61,0.00,CLR,,0.00,295.0,WeatherDisplay:10.37,2013-01-19 17:04:00,
2013-01-19 12:09:00,43.5,30.9,29.88,WSW,243,4.5,12.0,61,0.00,CLR,,0.00,262.0,WeatherDisplay:10.37,2013-01-19 17:09:00,
2013-01-19 12:15:00,43.9,30.9,29.88,WSW,254,5.3,9.0,60,0.00,CLR,,0.00,295.0,WeatherDisplay:10.37,2013-01-19 17:15:00,
2013-01-19 12:20:00,44.3,30.9,29.87,SSW,205,7.8,11.0,59,0.00,CLR,,0.00,362.0,WeatherDisplay:10.37,2013-01-19 17:20:00,
2013-01-19 12:27:00,45.4,31.9,29.86,SW,221,4.8,9.0,59,0.00,CLR,,0.00,316.0,WeatherDisplay:10.37,2013-01-19 17:27:00,
2013-01-19 12:32:00,45.8,31.4,29.85,West,261,6.6,14.0,57,0.00,CLR,,0.00,383.0,WeatherDisplay:10.37,2013-01-19 17:32:00,
2013-01-19 12:37:00,45.9,31.5,29.85,SW,228,4.6,10.4,57,0.00,CLR,,0.00,353.0,WeatherDisplay:10.37,2013-01-19 17:37:00,
2013-01-19 12:42:00,46.1,31.3,29.84,West,264,7.5,11.5,56,0.00,CLR,,0.00,376.0,WeatherDisplay:10.37,2013-01-19 17:42:00,
2013-01-19 12:47:00,46.2,31.8,29.84,SW,216,3.1,10.4,57,0.00,CLR,,0.00,315.0,WeatherDisplay:10.37,2013-01-19 17:47:00,
2013-01-19 12:53:00,45.9,31.1,29.83,West,278,4.2,11.5,56,0.00,CLR,,0.00,209.0,WeatherDisplay:10.37,2013-01-19 17:53:00,
2013-01-19 12:58:00,45.5,31.1,29.84,WSW,257,4.4,9.2,57,0.00,CLR,,0.00,221.0,WeatherDisplay:10.37,2013-01-19 17:58:00,
2013-01-19 13:03:00,45.3,31.0,29.83,SSW,201,5.0,7.0,57,0.00,CLR,,0.00,265.0,WeatherDisplay:10.37,2013-01-19 18:03:00,
2013-01-19 13:09:00,45.4,31.0,29.83,SW,218,6.8,11.0,57,0.00,CLR,,0.00,274.0,WeatherDisplay:10.37,2013-01-19 18:09:00,
2013-01-19 13:14:00,45.4,31.0,29.82,WNW,292,7.9,11.0,57,0.00,CLR,,0.00,322.0,WeatherDisplay:10.37,2013-01-19 18:14:00,
2013-01-19 13:22:00,45.2,30.9,29.82,SSW,195,5.1,16.1,57,0.00,CLR,,0.00,206.0,WeatherDisplay:10.37,2013-01-19 18:22:00,
2013-01-19 13:27:00,45.2,30.9,29.82,South,189,5.4,11.5,57,0.00,CLR,,0.00,294.0,WeatherDisplay:10.37,2013-01-19 18:27:00,
2013-01-19 13:32:00,45.4,31.0,29.81,NNW,329,8.5,16.1,57,0.00,CLR,,0.00,185.0,WeatherDisplay:10.37,2013-01-19 18:32:00,
2013-01-19 13:37:00,45.4,31.0,29.81,SSW,201,8.5,11.5,57,0.00,CLR,,0.00,264.0,WeatherDisplay:10.37,2013-01-19 18:37:00,
2013-01-19 13:42:00,45.4,31.0,29.80,SSE,159,3.1,10.4,57,0.00,CLR,,0.00,213.0,WeatherDisplay:10.37,2013-01-19 18:42:00,
2013-01-19 13:48:00,45.4,31.5,29.80,SSW,192,3.3,9.2,58,0.00,CLR,,0.00,214.0,WeatherDisplay:10.37,2013-01-19 18:48:00,
2013-01-19 13:54:00,45.5,31.6,29.80,SSE,166,6.3,11.5,58,0.00,CLR,,0.00,197.0,WeatherDisplay:10.37,2013-01-19 18:54:00,
2013-01-19 14:00:00,45.6,31.7,29.80,SW,217,3.2,9.2,58,0.00,CLR,,0.00,185.0,WeatherDisplay:10.37,2013-01-19 19:00:00,
2013-01-19 14:05:00,45.6,31.7,29.79,SSW,204,5.6,14.0,58,0.00,CLR,,0.00,202.0,WeatherDisplay:10.37,2013-01-19 19:05:00,
2013-01-19 14:10:00,45.7,31.3,29.79,South,183,6.0,13.8,57,0.00,CLR,,0.00,285.0,WeatherDisplay:10.37,2013-01-19 19:10:00,
2013-01-19 14:17:00,45.9,31.5,29.78,South,186,7.3,15.0,57,0.00,CLR,,0.02,206.0,WeatherDisplay:10.37,2013-01-19 19:17:00,
2013-01-19 14:22:00,46.0,31.6,29.79,SSE,157,5.8,9.0,57,0.02,RA,,0.02,276.0,WeatherDisplay:10.37,2013-01-19 19:22:00,
2013-01-19 14:27:00,46.2,31.8,29.78,West,263,5.2,11.5,57,0.02,RA,,0.02,255.0,WeatherDisplay:10.37,2013-01-19 19:27:00,
2013-01-19 14:33:00,46.4,32.0,29.78,SW,215,4.8,8.1,57,0.02,CLR,,0.02,262.0,WeatherDisplay:10.37,2013-01-19 19:33:00,
2013-01-19 14:38:00,46.4,32.4,29.78,South,169,3.0,11.5,58,0.02,CLR,,0.02,195.0,WeatherDisplay:10.37,2013-01-19 19:38:00,
2013-01-19 14:43:00,46.3,31.9,29.77,SSW,192,6.0,13.8,57,0.02,CLR,,0.02,202.0,WeatherDisplay:10.37,2013-01-19 19:43:00,
2013-01-19 14:48:00,46.4,32.0,29.77,West,261,4.8,12.0,57,0.02,CLR,,0.02,209.0,WeatherDisplay:10.37,2013-01-19 19:48:00,
2013-01-19 14:53:00,46.6,32.2,29.77,West,265,3.6,4.6,57,0.02,CLR,,0.02,202.0,WeatherDisplay:10.37,2013-01-19 19:53:00,
2013-01-19 14:58:00,46.9,32.4,29.76,West,264,7.1,16.1,57,0.02,CLR,,0.02,206.0,WeatherDisplay:10.37,2013-01-19 19:58:00,
2013-01-19 15:03:00,46.9,32.4,29.76,WSW,238,6.5,11.5,57,0.02,CLR,,0.02,181.0,WeatherDisplay:10.37,2013-01-19 20:03:00,
2013-01-19 15:08:00,47.0,32.5,29.76,SSE,164,5.5,19.6,57,0.02,CLR,,0.02,171.0,WeatherDisplay:10.37,2013-01-19 20:08:00,
2013-01-19 15:13:00,46.9,32.4,29.75,WSW,254,4.5,11.5,57,0.02,CLR,,0.02,174.0,WeatherDisplay:10.37,2013-01-19 20:13:00,
2013-01-19 15:18:00,47.0,32.5,29.75,SSW,198,3.8,5.0,57,0.00,CLR,,0.02,178.0,WeatherDisplay:10.37,2013-01-19 20:18:00,
2013-01-19 15:24:00,47.1,32.6,29.75,SSW,196,5.5,8.1,57,0.00,CLR,,0.02,174.0,WeatherDisplay:10.37,2013-01-19 20:24:00,
2013-01-19 15:29:00,47.2,32.7,29.75,West,265,6.3,9.0,57,0.00,CLR,,0.02,160.0,WeatherDisplay:10.37,2013-01-19 20:29:00,
2013-01-19 15:34:00,47.1,32.6,29.74,WSW,256,4.6,13.8,57,0.00,CLR,,0.02,162.0,WeatherDisplay:10.37,2013-01-19 20:34:00,
2013-01-19 15:39:00,47.1,32.6,29.74,SSW,207,6.1,8.1,57,0.00,CLR,,0.02,148.0,WeatherDisplay:10.37,2013-01-19 20:39:00,
2013-01-19 15:44:00,47.1,33.1,29.74,South,180,6.6,16.1,58,0.00,CLR,,0.02,134.0,WeatherDisplay:10.37,2013-01-19 20:44:00,
2013-01-19 15:49:00,47.0,33.0,29.74,ENE,59,4.6,11.5,58,0.00,CLR,,0.02,107.0,WeatherDisplay:10.37,2013-01-19 20:49:00,
2013-01-19 15:54:00,46.9,32.9,29.74,SSE,156,4.1,5.8,58,0.00,CLR,,0.02,93.0,WeatherDisplay:10.37,2013-01-19 20:54:00,
2013-01-19 15:59:00,46.8,32.8,29.73,SSW,200,7.2,11.5,58,0.00,CLR,,0.02,86.0,WeatherDisplay:10.37,2013-01-19 20:59:00,
2013-01-19 16:04:00,46.6,33.0,29.73,SSW,211,5.7,10.0,59,0.00,CLR,,0.02,76.0,WeatherDisplay:10.37,2013-01-19 21:04:00,
2013-01-19 16:10:00,46.5,32.9,29.73,West,271,4.6,11.5,59,0.00,CLR,,0.02,62.0,WeatherDisplay:10.37,2013-01-19 21:10:00,
2013-01-19 16:15:00,46.4,32.8,29.72,SW,230,5.2,10.4,59,0.00,CLR,,0.02,56.0,WeatherDisplay:10.37,2013-01-19 21:15:00,
2013-01-19 16:20:00,46.4,32.8,29.72,NW,317,7.6,16.1,59,0.00,CLR,,0.02,56.0,WeatherDisplay:10.37,2013-01-19 21:20:00,
2013-01-19 16:25:00,46.4,32.8,29.72,SE,128,7.2,16.1,59,0.00,CLR,,0.02,54.0,WeatherDisplay:10.37,2013-01-19 21:25:00,
2013-01-19 16:31:00,46.4,32.8,29.72,SW,218,5.4,12.0,59,0.00,CLR,,0.02,53.0,WeatherDisplay:10.37,2013-01-19 21:31:00,
2013-01-19 16:37:00,46.3,33.2,29.72,SW,224,5.8,13.8,60,0.00,CLR,,0.02,44.0,WeatherDisplay:10.37,2013-01-19 21:37:00,
2013-01-19 16:43:00,46.3,33.2,29.72,WNW,284,6.2,18.4,60,0.00,CLR,,0.02,39.0,WeatherDisplay:10.37,2013-01-19 21:43:00,
2013-01-19 16:49:00,46.3,33.2,29.73,SW,235,3.3,13.8,60,0.00,CLR,,0.02,33.0,WeatherDisplay:10.37,2013-01-19 21:49:00,
2013-01-19 16:54:00,46.3,33.2,29.73,West,267,5.3,12.7,60,0.00,CLR,,0.02,26.0,WeatherDisplay:10.37,2013-01-19 21:54:00,
2013-01-19 16:59:00,46.4,32.8,29.74,South,176,7.0,12.7,59,0.00,CLR,,0.02,19.0,WeatherDisplay:10.37,2013-01-19 21:59:00,
2013-01-19 17:04:00,46.3,33.2,29.73,West,264,6.8,11.5,60,0.00,CLR,,0.02,12.0,WeatherDisplay:10.37,2013-01-19 22:04:00,
2013-01-19 17:09:00,46.1,33.0,29.74,SSW,213,4.4,7.0,60,0.00,CLR,,0.02,9.0,WeatherDisplay:10.37,2013-01-19 22:09:00,
2013-01-19 17:14:00,46.1,33.0,29.74,SW,220,7.3,12.0,60,0.00,CLR,,0.02,7.0,WeatherDisplay:10.37,2013-01-19 22:14:00,
2013-01-19 17:19:00,46.0,33.3,29.73,WSW,240,5.3,6.9,61,0.00,CLR,,0.02,5.0,WeatherDisplay:10.37,2013-01-19 22:19:00,
2013-01-19 17:24:00,45.9,33.2,29.74,SW,233,5.0,9.2,61,0.00,CLR,,0.02,0.0,WeatherDisplay:10.37,2013-01-19 22:24:00,
2013-01-19 17:29:00,45.9,33.2,29.74,WSW,245,4.0,8.1,61,0.00,CLR,,0.02,0.0,WeatherDisplay:10.37,2013-01-19 22:29:00,
2013-01-19 17:35:00,45.8,33.1,29.74,SSW,199,5.3,12.0,61,0.00,CLR,,0.02,0.0,WeatherDisplay:10.37,2013-01-19 22:35:00,
2013-01-19 17:40:00,45.8,33.1,29.73,West,268,4.1,8.1,61,0.00,CLR,,0.02,0.0,WeatherDisplay:10.37,2013-01-19 22:40:00,
2013-01-19 17:45:00,45.7,33.0,29.73,West,264,5.2,19.0,61,0.00,CLR,,0.02,0.0,WeatherDisplay:10.37,2013-01-19 22:45:00,
2013-01-19 17:50:00,45.6,33.3,29.73,North,5,4.2,13.0,62,0.00,CLR,,0.02,0.0,WeatherDisplay:10.37,2013-01-19 22:50:00,
2013-01-19 17:55:00,45.5,33.2,29.73,SSE,156,2.8,5.8,62,0.00,CLR,,0.02,0.0,WeatherDisplay:10.37,2013-01-19 22:55:00,
2013-01-19 18:00:00,45.6,32.9,29.72,SSW,192,7.8,13.0,61,0.00,CLR,,0.02,0.0,WeatherDisplay:10.37,2013-01-19 23:00:00,
2013-01-19 18:05:00,45.6,33.3,29.71,SW,234,5.4,10.4,62,0.00,CLR,,0.02,0.0,WeatherDisplay:10.37,2013-01-19 23:05:00,
2013-01-19 18:10:00,45.5,33.2,29.71,SSW,192,5.6,9.2,62,0.00,CLR,,0.02,0.0,WeatherDisplay:10.37,2013-01-19 23:10:00,
2013-01-19 18:15:00,45.4,33.1,29.71,SW,223,3.2,5.0,62,0.00,BKN,,0.02,0.0,WeatherDisplay:10.37,2013-01-19 23:15:00,
2013-01-19 18:20:00,45.3,33.4,29.71,SW,216,3.3,8.1,63,0.00,BKN,,0.02,0.0,WeatherDisplay:10.37,2013-01-19 23:20:00,
2013-01-19 18:25:00,45.2,33.3,29.71,SSE,160,4.5,9.2,63,0.00,BKN,,0.02,0.0,WeatherDisplay:10.37,2013-01-19 23:25:00,
2013-01-19 18:31:00,45.1,33.2,29.70,South,184,6.3,11.5,63,0.00,BKN,,0.02,0.0,WeatherDisplay:10.37,2013-01-19 23:31:00,
2013-01-19 18:37:00,45.2,33.3,29.68,SW,222,2.8,8.1,63,0.00,BKN,,0.02,0.0,WeatherDisplay:10.37,2013-01-19 23:37:00,
2013-01-19 18:43:00,45.1,33.2,29.68,ESE,106,4.7,9.2,63,0.00,BKN,,0.02,0.0,WeatherDisplay:10.37,2013-01-19 23:43:00,
2013-01-19 18:48:00,45.0,33.5,29.69,SSW,207,5.1,9.0,64,0.00,BKN,,0.02,0.0,WeatherDisplay:10.37,2013-01-19 23:48:00,
2013-01-19 18:54:00,45.0,33.5,29.69,SSE,163,7.5,13.8,64,0.00,BKN,,0.02,0.0,WeatherDisplay:10.37,2013-01-19 23:54:00,
2013-01-19 18:59:00,45.0,33.5,29.69,SW,236,6.2,12.7,64,0.00,BKN,,0.02,0.0,WeatherDisplay:10.37,2013-01-19 23:59:00,
2013-01-19 19:04:00,45.1,33.6,29.69,SW,215,6.4,11.5,64,0.00,BKN,,0.02,0.0,WeatherDisplay:10.37,2013-01-20 00:04:00,
2013-01-19 19:09:00,45.1,33.6,29.69,South,170,5.5,10.4,64,0.00,BKN,,0.02,0.0,WeatherDisplay:10.37,2013-01-20 00:09:00,
2013-01-19 19:14:00,45.1,33.6,29.70,SE,144,4.3,8.1,64,0.00,BKN,,0.02,0.0,WeatherDisplay:10.37,2013-01-20 00:14:00,
2013-01-19 19:19:00,45.1,33.6,29.69,WSW,239,6.6,11.5,64,0.00,BKN,,0.02,0.0,WeatherDisplay:10.37,2013-01-20 00:19:00,
2013-01-19 19:24:00,45.1,33.6,29.69,SW,221,6.7,13.0,64,0.00,BKN,,0.02,0.0,WeatherDisplay:10.37,2013-01-20 00:24:00,
2013-01-19 19:29:00,45.0,33.5,29.69,West,259,5.7,9.2,64,0.00,BKN,,0.02,0.0,WeatherDisplay:10.37,2013-01-20 00:29:00,
2013-01-19 19:35:00,44.9,33.8,29.69,SE,138,4.4,9.2,65,0.00,BKN,,0.02,0.0,WeatherDisplay:10.37,2013-01-20 00:35:00,
2013-01-19 19:40:00,44.9,33.8,29.69,NW,304,5.2,11.5,65,0.00,BKN,,0.02,0.0,WeatherDisplay:10.37,2013-01-20 00:40:00,
2013-01-19 19:45:00,44.9,33.8,29.68,South,182,2.1,11.5,65,0.00,BKN,,0.02,0.0,WeatherDisplay:10.37,2013-01-20 00:45:00,
2013-01-19 19:50:00,44.8,33.7,29.68,SE,124,5.1,11.5,65,0.00,BKN,,0.02,0.0,WeatherDisplay:10.37,2013-01-20 00:50:00,
2013-01-19 19:55:00,44.7,33.6,29.68,SSW,196,7.9,11.5,65,0.00,BKN,,0.02,0.0,WeatherDisplay:10.37,2013-01-20 00:55:00,
2013-01-19 20:00:00,44.5,33.8,29.67,SSW,211,3.2,9.2,66,0.00,BKN,,0.02,0.0,WeatherDisplay:10.37,2013-01-20 01:00:00,
2013-01-19 20:05:00,44.3,33.7,29.67,WSW,252,3.4,8.1,66,0.00,BKN,,0.02,0.0,WeatherDisplay:10.37,2013-01-20 01:05:00,
2013-01-19 20:11:00,44.2,33.9,29.66,SSW,202,7.0,11.5,67,0.00,BKN,,0.02,0.0,WeatherDisplay:10.37,2013-01-20 01:11:00,
2013-01-19 20:16:00,44.2,33.9,29.66,SSW,207,3.8,8.1,67,0.00,FEW,,0.02,0.0,WeatherDisplay:10.37,2013-01-20 01:16:00,
2013-01-19 20:22:00,44.2,33.9,29.66,SE,124,4.5,13.0,67,0.00,FEW,,0.02,0.0,WeatherDisplay:10.37,2013-01-20 01:22:00,
2013-01-19 20:27:00,44.0,33.7,29.66,NW,304,6.2,9.0,67,0.00,FEW,,0.02,0.0,WeatherDisplay:10.37,2013-01-20 01:27:00,
2013-01-19 20:33:00,43.8,33.9,29.65,SSW,195,4.0,13.0,68,0.00,FEW,,0.02,0.0,WeatherDisplay:10.37,2013-01-20 01:33:00,
2013-01-19 20:38:00,43.8,33.9,29.65,WSW,244,6.2,10.0,68,0.00,FEW,,0.02,0.0,WeatherDisplay:10.37,2013-01-20 01:38:00,
2013-01-19 20:43:00,43.7,33.8,29.64,WSW,255,4.9,11.5,68,0.00,FEW,,0.02,0.0,WeatherDisplay:10.37,2013-01-20 01:43:00,
2013-01-19 20:48:00,43.6,34.1,29.64,SSE,168,5.3,11.5,69,0.00,FEW,,0.02,0.0,WeatherDisplay:10.37,2013-01-20 01:48:00,
2013-01-19 20:53:00,43.5,34.0,29.64,WSW,240,4.5,15.0,69,0.00,FEW,,0.02,0.0,WeatherDisplay:10.37,2013-01-20 01:53:00,
2013-01-19 20:59:00,43.3,33.8,29.64,West,271,5.6,10.4,69,0.00,FEW,,0.02,0.0,WeatherDisplay:10.37,2013-01-20 01:59:00,
2013-01-19 21:04:00,43.2,34.1,29.64,SW,225,3.6,7.0,70,0.00,FEW,,0.02,0.0,WeatherDisplay:10.37,2013-01-20 02:04:00,
2013-01-19 21:09:00,43.1,34.0,29.64,WNW,286,5.4,7.0,70,0.00,FEW,,0.02,0.0,WeatherDisplay:10.37,2013-01-20 02:09:00,
2013-01-19 21:14:00,42.9,33.8,29.63,WSW,254,6.0,11.5,70,0.00,FEW,,0.02,0.0,WeatherDisplay:10.37,2013-01-20 02:14:00,
2013-01-19 21:19:00,42.9,33.8,29.63,SW,223,6.3,11.5,70,0.00,FEW,,0.02,0.0,WeatherDisplay:10.37,2013-01-20 02:19:00,
2013-01-19 21:25:00,42.8,34.0,29.63,West,277,2.3,5.8,71,0.00,CLR,,0.02,0.0,WeatherDisplay:10.37,2013-01-20 02:25:00,
2013-01-19 21:30:00,42.6,33.9,29.62,South,178,4.0,6.9,71,0.00,CLR,,0.02,0.0,WeatherDisplay:10.37,2013-01-20 02:30:00,
2013-01-19 21:35:00,42.6,33.9,29.62,SSW,199,4.7,10.4,71,0.00,CLR,,0.02,0.0,WeatherDisplay:10.37,2013-01-20 02:35:00,
2013-01-19 21:40:00,42.5,33.8,29.62,SW,222,3.9,8.0,71,0.00,CLR,,0.02,0.0,WeatherDisplay:10.37,2013-01-20 02:40:00,
2013-01-19 21:46:00,42.4,34.0,29.62,SSW,208,7.2,13.0,72,0.00,CLR,,0.02,0.0,WeatherDisplay:10.37,2013-01-20 02:46:00,
2013-01-19 21:51:00,42.4,34.0,29.62,South,169,8.1,17.3,72,0.00,CLR,,0.02,0.0,WeatherDisplay:10.37,2013-01-20 02:51:00,
2013-01-19 21:56:00,42.3,33.9,29.61,SW,236,3.8,10.0,72,0.00,CLR,,0.02,0.0,WeatherDisplay:10.37,2013-01-20 02:56:00,
2013-01-19 22:02:00,42.1,33.7,29.61,SW,232,4.3,12.0,72,0.00,CLR,,0.02,0.0,WeatherDisplay:10.37,2013-01-20 03:02:00,
2013-01-19 22:08:00,42.0,34.0,29.61,SW,232,7.3,12.0,73,0.00,CLR,,0.02,0.0,WeatherDisplay:10.37,2013-01-20 03:08:00,
2013-01-19 22:13:00,42.0,34.0,29.61,SSW,205,7.9,12.0,73,0.00,CLR,,0.02,0.0,WeatherDisplay:10.37,2013-01-20 03:13:00,
2013-01-19 22:18:00,42.0,34.0,29.60,SSW,207,6.6,11.5,73,0.00,CLR,,0.02,0.0,WeatherDisplay:10.37,2013-01-20 03:18:00,
2013-01-19 22:23:00,41.9,33.9,29.60,ESE,114,2.7,12.7,73,0.00,CLR,,0.02,0.0,WeatherDisplay:10.37,2013-01-20 03:23:00,
2013-01-19 22:28:00,41.8,33.8,29.60,NW,306,3.5,7.0,73,0.00,CLR,,0.02,0.0,WeatherDisplay:10.37,2013-01-20 03:28:00,
2013-01-19 22:34:00,41.8,34.1,29.60,West,275,5.5,13.0,74,0.00,CLR,,0.02,0.0,WeatherDisplay:10.37,2013-01-20 03:34:00,
2013-01-19 22:39:00,41.8,34.1,29.60,WNW,290,4.6,8.0,74,0.00,CLR,,0.02,0.0,WeatherDisplay:10.37,2013-01-20 03:39:00,
2013-01-19 22:44:00,41.6,33.9,29.60,SW,234,3.3,5.0,74,0.00,CLR,,0.02,0.0,WeatherDisplay:10.37,2013-01-20 03:44:00,
2013-01-19 22:49:00,41.5,34.2,29.59,SW,231,2.7,5.0,75,0.00,CLR,,0.02,0.0,WeatherDisplay:10.37,2013-01-20 03:49:00,
2013-01-19 22:54:00,41.4,34.1,29.59,South,189,3.1,4.6,75,0.00,CLR,,0.02,0.0,WeatherDisplay:10.37,2013-01-20 03:54:00,
2013-01-19 22:59:00,41.4,34.1,29.59,WSW,251,3.4,12.7,75,0.00,CLR,,0.02,0.0,WeatherDisplay:10.37,2013-01-20 03:59:00,
2013-01-19 23:04:00,41.4,34.1,29.59,WSW,248,3.8,6.0,75,0.00,SCT,,0.02,0.0,WeatherDisplay:10.37,2013-01-20 04:04:00,
2013-01-19 23:09:00,41.4,34.4,29.58,SW,224,5.5,7.0,76,0.00,SCT,,0.02,0.0,WeatherDisplay:10.37,2013-01-20 04:09:00,
2013-01-19 23:14:00,41.6,34.3,29.58,West,265,1.3,3.0,75,0.00,SCT,,0.02,0.0,WeatherDisplay:10.37,2013-01-20 04:14:00,
2013-01-19 23:19:00,41.5,34.2,29.58,SW,227,3.7,6.9,75,0.00,SCT,,0.02,0.0,WeatherDisplay:10.37,2013-01-20 04:19:00,
2013-01-19 23:24:00,41.5,34.2,29.58,South,180,2.1,9.2,75,0.00,SCT,,0.02,0.0,WeatherDisplay:10.37,2013-01-20 04:24:00,
2013-01-19 23:29:00,41.4,34.4,29.58,West,270,2.7,6.9,76,0.00,SCT,,0.02,0.0,WeatherDisplay:10.37,2013-01-20 04:29:00,
2013-01-19 23:34:00,41.3,34.3,29.58,SSW,213,3.1,5.0,76,0.00,SCT,,0.02,0.0,WeatherDisplay:10.37,2013-01-20 04:34:00,
2013-01-19 23:39:00,41.2,34.2,29.57,South,172,3.1,8.1,76,0.00,SCT,,0.02,0.0,WeatherDisplay:10.37,2013-01-20 04:39:00,
2013-01-19 23:44:00,41.3,34.3,29.57,SW,227,1.6,6.9,76,0.00,SCT,,0.02,0.0,WeatherDisplay:10.37,2013-01-20 04:44:00,
2013-01-19 23:50:00,41.1,34.1,29.57,WSW,237,3.5,6.0,76,0.00,SCT,,0.02,0.0,WeatherDisplay:10.37,2013-01-20 04:50:00,
2013-01-19 23:55:00,41.1,34.1,29.57,SW,232,3.6,8.0,76,0.00,SCT,,0.02,0.0,WeatherDisplay:10.37,2013-01-20 04:55:00,